Time;durP1;ratioP1;P1;durP2;ratioP2;P2;SDS_P1;SDS_P2;PMS_P1;PMS_P2;Temp;Humidity;BMP_temperature;BMP_pressure;BME280_temperature;BME280_humidity;BME280_pressure;Samples;Min_cycle;Max_cycle;Signal;HPM_P1;HPM_P2
2024/03/16 00:00:57;;;;;;;26.48;10.75;;;;;;;11.04;100.00;100882.19;10503354;28;20154;-69
2024/03/16 00:05:57;;;;;;;32.78;9.35;;;;;;;10.99;100.00;100880.09;10499574;28;20048;-69
2024/03/16 00:10:59;;;;;;;28.17;9.50;;;;;;;11.07;100.00;100900.75;10500819;28;20036;-69
2024/03/16 00:16:00;;;;;;;49.00;23.92;;;;;;;11.05;100.00;100913.69;10500519;28;20024;-69
2024/03/16 00:21:01;;;;;;;23.17;6.00;;;;;;;10.87;100.00;100925.84;10501057;28;20052;-69
2024/03/16 00:26:01;;;;;;;31.25;7.30;;;;;;;10.76;100.00;100947.25;10500374;28;20091;-68
2024/03/16 00:31:03;;;;;;;18.30;5.97;;;;;;;10.69;100.00;100956.19;10500599;28;20124;-69
2024/03/16 00:36:04;;;;;;;21.90;11.63;;;;;;;10.56;100.00;100969.63;10499782;28;20029;-69
2024/03/16 00:41:04;;;;;;;12.02;5.90;;;;;;;10.50;100.00;100969.53;10499479;28;20028;-70
2024/03/16 00:46:04;;;;;;;12.02;4.15;;;;;;;10.40;100.00;100978.84;10500884;28;20594;-69
2024/03/16 00:51:05;;;;;;;4.50;3.75;;;;;;;10.35;100.00;100988.59;10500272;28;20119;-69
2024/03/16 00:56:05;;;;;;;8.27;4.13;;;;;;;10.25;100.00;100997.81;10499365;28;20467;-70
2024/03/16 01:01:06;;;;;;;13.23;4.25;;;;;;;10.00;100.00;101012.75;10501545;28;20129;-70
2024/03/16 01:06:06;;;;;;;10.77;5.40;;;;;;;9.81;100.00;101027.72;10499550;28;20494;-70
2024/03/16 01:11:09;;;;;;;13.75;6.03;;;;;;;9.67;100.00;101037.53;10482098;28;20036;-70
2024/03/16 01:16:09;;;;;;;9.13;4.82;;;;;;;9.39;100.00;101042.75;10498561;28;20421;-69
2024/03/16 01:21:10;;;;;;;9.00;5.53;;;;;;;9.14;100.00;101049.47;10498287;28;20032;-69
2024/03/16 01:26:10;;;;;;;9.40;7.65;;;;;;;9.06;100.00;101053.94;10498839;28;20035;-69
2024/03/16 01:31:11;;;;;;;19.33;11.73;;;;;;;9.10;100.00;101054.41;10498830;28;20102;-69
2024/03/16 01:36:11;;;;;;;18.55;8.85;;;;;;;9.13;100.00;101054.03;10496891;28;20043;-69
2024/03/16 01:41:12;;;;;;;12.25;7.13;;;;;;;9.16;100.00;101064.47;10497536;28;20032;-69
2024/03/16 01:46:15;;;;;;;15.40;10.02;;;;;;;9.18;100.00;101066.97;10497702;28;20075;-69
2024/03/16 01:51:15;;;;;;;5.68;2.92;;;;;;;9.17;100.00;101084.22;10496411;28;20081;-70
2024/03/16 01:56:16;;;;;;;1.15;1.15;;;;;;;9.10;100.00;101092.22;10495271;28;20138;-70
2024/03/16 02:01:17;;;;;;;2.08;1.98;;;;;;;9.04;100.00;101112.69;10498198;28;20048;-69
2024/03/16 02:06:17;;;;;;;1.38;1.38;;;;;;;8.97;100.00;101119.00;10496376;28;20396;-69
2024/03/16 02:11:18;;;;;;;0.43;0.43;;;;;;;8.88;100.00;101131.72;10495952;28;20091;-70
2024/03/16 02:16:18;;;;;;;2.85;1.17;;;;;;;8.82;100.00;101133.28;10497165;28;20040;-69
2024/03/16 02:21:18;;;;;;;3.63;2.03;;;;;;;8.75;100.00;101139.59;10496673;28;20065;-69
2024/03/16 02:26:19;;;;;;;0.50;0.50;;;;;;;8.72;100.00;101146.19;10496788;28;20115;-69
2024/03/16 02:31:19;;;;;;;0.60;0.60;;;;;;;8.64;100.00;101150.78;10495291;28;20048;-69
2024/03/16 02:36:20;;;;;;;0.50;0.50;;;;;;;8.50;100.00;101169.44;10495742;28;20029;-68
2024/03/16 02:41:22;;;;;;;0.43;0.43;;;;;;;8.51;100.00;101168.41;10495388;28;20028;-70
2024/03/16 02:46:22;;;;;;;0.60;0.60;;;;;;;8.56;100.00;101170.59;10496197;28;20024;-69
2024/03/16 02:51:22;;;;;;;0.45;0.45;;;;;;;8.58;100.00;101177.50;10495679;28;20033;-69
2024/03/16 02:56:23;;;;;;;1.35;1.30;;;;;;;8.53;100.00;101181.75;10493708;28;20175;-69
2024/03/16 03:01:23;;;;;;;2.88;2.75;;;;;;;8.47;100.00;101204.03;10494168;28;20029;-69
2024/03/16 03:06:27;;;;;;;1.85;1.85;;;;;;;8.47;100.00;101207.59;10497763;28;20044;-69
2024/03/16 03:11:27;;;;;;;0.40;0.40;;;;;;;8.40;100.00;101225.50;10502307;28;20590;-70
2024/03/16 03:16:28;;;;;;;0.47;0.47;;;;;;;8.29;100.00;101229.38;10502385;28;20203;-69
2024/03/16 03:21:29;;;;;;;0.40;0.40;;;;;;;8.22;100.00;101236.47;10503268;28;20251;-69
2024/03/16 03:26:29;;;;;;;0.50;0.50;;;;;;;8.17;100.00;101238.88;10502403;28;20028;-69
2024/03/16 03:31:30;;;;;;;0.50;0.50;;;;;;;8.14;100.00;101241.94;10502554;28;20024;-68
2024/03/16 03:36:30;;;;;;;11.13;4.88;;;;;;;8.00;100.00;101262.34;10502480;28;20064;-69
2024/03/16 03:41:31;;;;;;;0.45;0.45;;;;;;;8.02;100.00;101267.56;10502082;28;20021;-69
2024/03/16 03:46:49;;;;;;;0.55;0.55;;;;;;;8.16;100.00;101285.72;10501346;28;20025;-69
2024/03/16 03:51:50;;;;;;;0.60;0.60;;;;;;;8.13;100.00;101291.47;10502217;28;20102;-69
2024/03/16 03:56:51;;;;;;;0.70;0.70;;;;;;;8.05;100.00;101307.69;10500450;28;20059;-69
2024/03/16 04:01:52;;;;;;;0.60;0.60;;;;;;;7.88;100.00;101314.94;10499932;28;20024;-69
2024/03/16 04:06:52;;;;;;;0.38;0.38;;;;;;;7.76;100.00;101317.16;10500653;28;20105;-69
2024/03/16 04:11:52;;;;;;;0.50;0.50;;;;;;;7.80;100.00;101334.66;10499621;28;20032;-69
2024/03/16 04:16:53;;;;;;;0.60;0.60;;;;;;;7.81;100.00;101340.91;10499288;28;20123;-70
2024/03/16 04:21:54;;;;;;;0.70;0.70;;;;;;;7.96;100.00;101355.38;10499065;28;20413;-69
2024/03/16 04:26:54;;;;;;;0.40;0.40;;;;;;;8.00;100.00;101364.81;10483011;28;20032;-69
2024/03/16 04:31:55;;;;;;;0.50;0.50;;;;;;;8.04;100.00;101355.41;10500062;28;20032;-69
2024/03/16 04:36:55;;;;;;;0.80;0.80;;;;;;;8.08;100.00;101378.31;10500209;28;20414;-69
2024/03/16 04:41:55;;;;;;;0.50;0.50;;;;;;;8.11;100.00;101372.59;10501429;28;20036;-69
2024/03/16 04:46:56;;;;;;;2.28;2.17;;;;;;;8.02;100.00;101378.16;10500780;28;20087;-72
2024/03/16 04:51:57;;;;;;;0.50;0.50;;;;;;;8.09;100.00;101400.72;10498231;28;20036;-70
2024/03/16 04:56:57;;;;;;;0.50;0.50;;;;;;;8.13;100.00;101423.66;10498782;28;20083;-69
2024/03/16 05:01:57;;;;;;;3.17;2.88;;;;;;;7.92;100.00;101437.66;10499467;28;20056;-71
2024/03/16 05:06:58;;;;;;;0.50;0.50;;;;;;;7.73;100.00;101454.13;10500271;28;20329;-70
2024/03/16 05:11:58;;;;;;;0.40;0.40;;;;;;;7.51;100.00;101469.91;10499151;28;20147;-70
2024/03/16 05:16:58;;;;;;;0.50;0.50;;;;;;;7.42;100.00;101477.09;10499622;28;20037;-68
2024/03/16 05:21:59;;;;;;;0.60;0.60;;;;;;;7.35;100.00;101491.41;10482166;28;20060;-69
2024/03/16 05:26:59;;;;;;;0.50;0.50;;;;;;;7.35;100.00;101497.63;10497500;28;20363;-69
2024/03/16 05:32:00;;;;;;;0.60;0.60;;;;;;;7.37;100.00;101500.16;10496369;28;20118;-69
2024/03/16 05:37:01;;;;;;;0.70;0.70;;;;;;;7.38;100.00;101515.34;10498561;28;20028;-70
2024/03/16 05:42:01;;;;;;;0.50;0.50;;;;;;;7.34;100.00;101522.91;10496784;28;20093;-69
2024/03/16 05:47:02;;;;;;;0.60;0.60;;;;;;;7.37;100.00;101535.16;10497304;28;20024;-70
2024/03/16 05:52:02;;;;;;;0.65;0.65;;;;;;;7.42;100.00;101557.09;10496518;28;20115;-69
2024/03/16 05:57:03;;;;;;;0.70;0.70;;;;;;;7.41;100.00;101575.13;10497046;28;20035;-69
2024/03/16 06:02:04;;;;;;;0.50;0.50;;;;;;;7.41;100.00;101583.22;10496528;28;20120;-69
2024/03/16 06:07:04;;;;;;;0.60;0.60;;;;;;;7.48;100.00;101604.13;10495677;28;20052;-68
2024/03/16 06:12:05;;;;;;;0.60;0.60;;;;;;;7.49;100.00;101612.03;10496647;28;20044;-69
2024/03/16 06:17:06;;;;;;;0.55;0.55;;;;;;;7.49;100.00;101630.06;10495559;28;20432;-69
2024/03/16 06:22:07;;;;;;;0.65;0.65;;;;;;;7.45;100.00;101632.22;10497322;28;20429;-69
2024/03/16 06:27:09;;;;;;;0.60;0.60;;;;;;;7.51;100.00;101646.94;10495406;28;20523;-70
2024/03/16 06:32:10;;;;;;;0.47;0.47;;;;;;;7.55;100.00;101648.28;10494625;28;20036;-69
2024/03/16 06:37:10;;;;;;;9.50;1.95;;;;;;;7.52;100.00;101656.69;10495020;28;20028;-69
2024/03/16 06:42:11;;;;;;;0.60;0.60;;;;;;;7.53;100.00;101677.25;10495455;28;20436;-69
2024/03/16 06:47:12;;;;;;;0.60;0.60;;;;;;;7.58;100.00;101693.81;10496988;28;20037;-69
2024/03/16 06:52:12;;;;;;;0.60;0.60;;;;;;;7.62;100.00;101703.25;10495947;28;20032;-69
2024/03/16 06:57:13;;;;;;;0.60;0.60;;;;;;;7.64;100.00;101710.19;10495924;28;20040;-70
2024/03/16 07:02:13;;;;;;;1.08;1.08;;;;;;;7.64;100.00;101720.97;10496646;28;20425;-69
2024/03/16 07:07:14;;;;;;;0.57;0.57;;;;;;;7.72;100.00;101736.34;10496239;28;20048;-68
2024/03/16 07:12:15;;;;;;;0.50;0.50;;;;;;;7.76;100.00;101736.91;10495310;28;20126;-69
2024/03/16 07:17:15;;;;;;;0.70;0.70;;;;;;;7.84;100.00;101745.84;10469994;28;20484;-68
2024/03/16 07:22:16;;;;;;;0.50;0.50;;;;;;;7.86;100.00;101751.09;10496256;28;20124;-70
2024/03/16 07:27:16;;;;;;;0.52;0.52;;;;;;;7.97;100.00;101769.69;10493480;28;20024;-68
2024/03/16 07:32:17;;;;;;;0.80;0.80;;;;;;;8.09;100.00;101781.06;10494969;28;20032;-70
2024/03/16 07:37:18;;;;;;;0.60;0.60;;;;;;;8.18;100.00;101790.91;10495798;28;20032;-69
2024/03/16 07:42:18;;;;;;;0.50;0.50;;;;;;;8.20;100.00;101807.81;10495738;28;20028;-69
2024/03/16 07:47:19;;;;;;;0.57;0.57;;;;;;;8.25;100.00;101810.00;10493302;28;20124;-69
2024/03/16 07:52:19;;;;;;;0.50;0.50;;;;;;;8.27;100.00;101816.09;10497196;28;20036;-69
2024/03/16 07:57:20;;;;;;;0.50;0.50;;;;;;;8.25;100.00;101820.81;10501720;28;20425;-69
2024/03/16 08:02:20;;;;;;;0.50;0.50;;;;;;;8.40;100.00;101821.09;10499729;28;20051;-71
2024/03/16 08:07:21;;;;;;;0.60;0.60;;;;;;;8.51;100.00;101832.44;10501280;28;20499;-69
2024/03/16 08:12:21;;;;;;;0.47;0.47;;;;;;;8.65;100.00;101830.13;10500985;28;20032;-69
2024/03/16 08:17:22;;;;;;;0.40;0.40;;;;;;;8.77;100.00;101836.94;10516780;28;20036;-68
2024/03/16 08:22:23;;;;;;;0.43;0.43;;;;;;;8.94;100.00;101852.22;10501401;28;20037;-68
2024/03/16 08:27:24;;;;;;;0.45;0.45;;;;;;;9.04;100.00;101861.03;10500656;28;20478;-68
2024/03/16 08:32:25;;;;;;;0.55;0.55;;;;;;;8.97;100.00;101860.00;10500723;28;20039;-68
2024/03/16 08:37:25;;;;;;;0.50;0.50;;;;;;;8.93;100.00;101877.50;10483838;28;20089;-68
2024/03/16 08:42:26;;;;;;;0.55;0.55;;;;;;;8.96;100.00;101893.41;10500417;28;20032;-68
2024/03/16 08:47:26;;;;;;;0.52;0.52;;;;;;;9.26;100.00;101889.31;10500928;28;20352;-68
2024/03/16 08:52:27;;;;;;;0.50;0.50;;;;;;;9.54;100.00;101895.28;10499427;28;20123;-68
2024/03/16 08:57:27;;;;;;;0.50;0.50;;;;;;;9.91;100.00;101912.88;10500130;28;20166;-68
2024/03/16 09:02:28;;;;;;;0.50;0.50;;;;;;;10.17;100.00;101917.28;10498153;28;20191;-68
2024/03/16 09:07:28;;;;;;;0.50;0.50;;;;;;;10.57;100.00;101924.56;10499411;28;20048;-68
2024/03/16 09:12:29;;;;;;;0.40;0.40;;;;;;;10.68;100.00;101936.88;10498778;28;20024;-69
2024/03/16 09:17:30;;;;;;;0.52;0.52;;;;;;;10.72;100.00;101946.38;10497099;28;20161;-68
2024/03/16 09:22:30;;;;;;;0.60;0.60;;;;;;;10.76;100.00;101950.44;10498510;28;20033;-68
2024/03/16 09:27:36;;;;;;;0.47;0.47;;;;;;;10.82;100.00;101960.56;10497936;28;20471;-68
2024/03/16 09:32:37;;;;;;;1.13;1.13;;;;;;;10.83;100.00;101980.38;10496584;28;20115;-68
2024/03/16 09:37:37;;;;;;;0.50;0.50;;;;;;;10.77;100.00;101975.66;10498385;28;20345;-69
2024/03/16 09:42:38;;;;;;;0.50;0.50;;;;;;;10.90;100.00;101990.34;10498919;28;20178;-68
2024/03/16 09:47:38;;;;;;;0.52;0.52;;;;;;;11.12;100.00;101994.19;10496747;28;20024;-68
2024/03/16 09:52:42;;;;;;;2.50;1.58;;;;;;;11.30;100.00;102010.22;10497952;28;20441;-68
2024/03/16 09:57:43;;;;;;;0.35;0.35;;;;;;;11.27;100.00;102020.59;10495933;28;20028;-68
2024/03/16 10:02:43;;;;;;;0.60;0.60;;;;;;;11.29;100.00;102021.22;10479294;28;20036;-69
2024/03/16 10:07:45;;;;;;;5.75;2.20;;;;;;;11.55;100.00;102029.97;10494664;28;20057;-69
2024/03/16 10:12:46;;;;;;;11.45;2.65;;;;;;;11.46;100.00;102032.91;10496001;28;20097;-69
2024/03/16 10:17:46;;;;;;;1.60;1.48;;;;;;;11.43;100.00;102057.66;10496628;28;20109;-69
2024/03/16 10:22:48;;;;;;;6.10;1.60;;;;;;;11.51;100.00;102057.59;10495577;28;20509;-69
2024/03/16 10:27:48;;;;;;;10.88;2.53;;;;;;;11.71;100.00;102072.47;10497386;28;20032;-69
2024/03/16 10:32:49;;;;;;;4.20;1.92;;;;;;;11.87;100.00;102074.28;10496198;28;20468;-69
2024/03/16 10:37:49;;;;;;;11.40;2.00;;;;;;;12.07;100.00;102066.53;10494242;28;20032;-69
2024/03/16 10:42:50;;;;;;;16.52;4.13;;;;;;;12.67;100.00;102086.66;10494082;28;20043;-69
2024/03/16 10:47:51;;;;;;;4.53;1.73;;;;;;;13.06;100.00;102074.75;10439142;28;20044;-70
2024/03/16 10:52:52;;;;;;;12.40;2.55;;;;;;;12.76;100.00;102086.41;10494636;28;20508;-70
2024/03/16 10:57:53;;;;;;;10.25;3.67;;;;;;;12.34;100.00;102087.72;10494861;28;20521;-70
2024/03/16 11:03:09;;;;;;;9.00;2.85;;;;;;;12.35;100.00;102094.03;10494429;28;20356;-69
2024/03/16 11:08:11;;;;;;;10.23;3.70;;;;;;;12.28;100.00;102093.91;10480298;28;20126;-69
2024/03/16 11:13:13;;;;;;;12.15;3.47;;;;;;;13.53;100.00;102103.50;10495808;28;20033;-70
2024/03/16 11:18:16;;;;;;;5.25;1.95;;;;;;;13.56;100.00;102109.44;10495115;28;20063;-70
2024/03/16 11:23:21;;;;;;;11.25;2.85;;;;;;;13.65;100.00;102113.75;10493998;28;20078;-70
2024/03/16 11:28:22;;;;;;;2.92;2.35;;;;;;;13.72;100.00;102120.16;10498671;28;20024;-70
2024/03/16 11:33:22;;;;;;;2.13;1.85;;;;;;;13.90;100.00;102124.34;10502483;28;20032;-70
2024/03/16 11:38:23;;;;;;;3.53;2.53;;;;;;;14.23;100.00;102123.91;10501141;28;20028;-70
2024/03/16 11:43:23;;;;;;;7.00;2.05;;;;;;;13.88;100.00;102129.13;10502667;28;20479;-70
2024/03/16 11:48:25;;;;;;;2.45;1.77;;;;;;;14.40;100.00;102134.38;10484250;28;20452;-69
2024/03/16 11:53:25;;;;;;;4.25;2.20;;;;;;;14.97;100.00;102142.75;10501679;28;20040;-69
2024/03/16 11:58:28;;;;;;;3.40;2.13;;;;;;;15.02;100.00;102154.72;10500477;28;20043;-69
2024/03/16 12:03:28;;;;;;;1.25;1.15;;;;;;;14.68;100.00;102158.22;10499779;28;20110;-69
2024/03/16 12:08:29;;;;;;;5.78;1.85;;;;;;;14.69;100.00;102167.22;10499728;28;20051;-70
2024/03/16 12:13:30;;;;;;;4.20;2.17;;;;;;;14.42;100.00;102175.94;10500658;28;20043;-70
2024/03/16 12:18:31;;;;;;;1.52;1.20;;;;;;;14.88;100.00;102161.97;10500389;28;20107;-70
2024/03/16 12:23:36;;;;;;;2.92;1.83;;;;;;;14.97;100.00;102172.75;10499645;28;20386;-70
2024/03/16 12:28:36;;;;;;;2.58;2.15;;;;;;;14.36;100.00;102170.41;10483416;28;20417;-70
2024/03/16 12:33:37;;;;;;;6.75;1.70;;;;;;;14.59;100.00;102164.81;10500337;28;20028;-70
2024/03/16 12:38:38;;;;;;;4.03;2.25;;;;;;;14.48;100.00;102168.00;10481950;28;20460;-69
2024/03/16 12:43:38;;;;;;;8.50;1.65;;;;;;;14.97;100.00;102184.50;10500201;28;20375;-71
2024/03/16 12:48:39;;;;;;;8.45;2.42;;;;;;;14.69;100.00;102194.50;10434306;28;20054;-71
2024/03/16 12:53:39;;;;;;;6.22;2.78;;;;;;;13.93;100.00;102197.50;10500097;28;20123;-69
2024/03/16 12:58:40;;;;;;;1.95;1.70;;;;;;;14.35;100.00;102185.03;10499762;28;20448;-69
2024/03/16 13:03:41;;;;;;;1.77;1.67;;;;;;;14.74;100.00;102189.28;10499271;28;20033;-69
2024/03/16 13:08:41;;;;;;;4.38;2.35;;;;;;;14.48;100.00;102190.66;10499734;28;20480;-69
2024/03/16 13:13:42;;;;;;;2.35;1.50;;;;;;;14.03;100.00;102194.47;10497189;28;20134;-69
2024/03/16 13:18:43;;;;;;;3.15;1.67;;;;;;;14.22;100.00;102206.69;10498681;28;20430;-70
2024/03/16 13:23:43;;;;;;;3.95;1.92;;;;;;;13.71;100.00;102204.72;10499357;28;20124;-70
2024/03/16 13:28:44;;;;;;;1.48;1.13;;;;;;;13.73;100.00;102208.94;10498122;28;20451;-70
2024/03/16 13:33:44;;;;;;;3.03;1.92;;;;;;;13.67;100.00;102211.56;10496786;28;20040;-69
2024/03/16 13:38:45;;;;;;;5.20;1.75;;;;;;;14.36;100.00;102214.84;10497567;28;20038;-72
2024/03/16 13:43:45;;;;;;;3.30;1.52;;;;;;;14.10;100.00;102222.66;10498313;28;20068;-70
2024/03/16 13:49:06;;;;;;;4.80;1.98;;;;;;;13.85;100.00;102217.50;10495811;28;20059;-69
2024/03/16 13:54:06;;;;;;;5.82;1.90;;;;;;;13.71;100.00;102221.03;10496706;28;20424;-68
2024/03/16 13:59:07;;;;;;;2.95;1.58;;;;;;;13.51;100.00;102223.47;10495903;28;20029;-69
2024/03/16 14:04:08;;;;;;;3.45;1.98;;;;;;;13.26;100.00;102226.38;10498319;28;20455;-69
2024/03/16 14:09:08;;;;;;;3.65;1.90;;;;;;;13.07;100.00;102229.56;10496134;28;20163;-69
2024/03/16 14:14:09;;;;;;;6.47;2.55;;;;;;;12.78;100.00;102225.69;10496570;28;20150;-69
2024/03/16 14:19:11;;;;;;;4.68;1.98;;;;;;;13.98;100.00;102216.84;10497418;28;20036;-68
2024/03/16 14:24:11;;;;;;;1.77;1.67;;;;;;;14.99;100.00;102212.41;10496662;28;20039;-69
2024/03/16 14:29:11;;;;;;;5.30;2.17;;;;;;;15.30;100.00;102212.06;10495737;28;20432;-69
2024/03/16 14:34:12;;;;;;;1.77;1.58;;;;;;;14.95;100.00;102218.47;10495005;28;20082;-70
2024/03/16 14:39:13;;;;;;;1.88;1.77;;;;;;;15.47;100.00;102209.06;10496553;28;20337;-69
2024/03/16 14:44:13;;;;;;;7.95;2.58;;;;;;;15.81;100.00;102208.28;10495888;28;20033;-69
2024/03/16 14:49:14;;;;;;;3.25;2.28;;;;;;;15.94;100.00;102211.09;10495737;28;20029;-69
2024/03/16 14:54:14;;;;;;;4.47;2.03;;;;;;;15.85;100.00;102206.84;10494364;28;20032;-68
2024/03/16 14:59:17;;;;;;;1.98;1.55;;;;;;;15.85;100.00;102203.25;10495003;28;20460;-69
2024/03/16 15:04:17;;;;;;;3.95;2.00;;;;;;;15.30;100.00;102209.34;10501196;28;20071;-70
2024/03/16 15:09:18;;;;;;;1.85;1.38;;;;;;;14.89;100.00;102209.16;10501972;28;20090;-69
2024/03/16 15:14:18;;;;;;;6.75;2.47;;;;;;;14.36;100.00;102220.28;10504455;28;20047;-69
2024/03/16 15:19:19;;;;;;;4.07;2.63;;;;;;;13.48;100.00;102237.44;10503401;28;20068;-71
2024/03/16 15:24:22;;;;;;;1.42;1.25;;;;;;;13.08;100.00;102231.28;10502561;28;20025;-70
2024/03/16 15:29:23;;;;;;;4.15;1.60;;;;;;;12.74;100.00;102237.97;10451192;28;20109;-69
2024/03/16 15:34:23;;;;;;;1.77;1.67;;;;;;;12.43;100.00;102237.94;10501437;28;20063;-69
2024/03/16 15:39:24;;;;;;;6.72;2.85;;;;;;;12.26;100.00;102261.63;10502023;28;20060;-69
2024/03/16 15:44:24;;;;;;;2.20;1.27;;;;;;;11.97;100.00;102254.09;10501886;28;20025;-69
2024/03/16 15:49:24;;;;;;;6.68;2.20;;;;;;;11.94;100.00;102245.44;10500785;28;20094;-69
2024/03/16 15:54:25;;;;;;;4.70;2.08;;;;;;;11.68;100.00;102249.19;10502078;28;20032;-69
2024/03/16 15:59:25;;;;;;;1.67;1.27;;;;;;;11.20;100.00;102244.59;10502308;28;20551;-69
2024/03/16 16:04:26;;;;;;;3.40;2.15;;;;;;;10.81;100.00;102246.09;10499991;28;20055;-69
2024/03/16 16:09:26;;;;;;;4.28;1.48;;;;;;;10.52;100.00;102245.66;10483250;28;20075;-69
2024/03/16 16:14:27;;;;;;;4.75;2.13;;;;;;;10.22;100.00;102256.88;10500040;28;20059;-69
2024/03/16 16:19:27;;;;;;;4.25;1.25;;;;;;;10.04;100.00;102253.38;10501273;28;20032;-69
2024/03/16 16:24:28;;;;;;;12.38;1.95;;;;;;;9.76;100.00;102258.09;10500608;28;20321;-69
2024/03/16 16:29:28;;;;;;;2.85;1.60;;;;;;;9.62;100.00;102262.25;10501798;28;20083;-68
2024/03/16 16:34:28;;;;;;;2.85;2.35;;;;;;;9.51;100.00;102257.94;10499921;28;20036;-69
2024/03/16 16:39:29;;;;;;;15.15;2.20;;;;;;;9.36;100.00;102261.38;10501719;28;20434;-68
2024/03/16 16:44:29;;;;;;;2.25;1.88;;;;;;;9.22;100.00;102270.84;10498911;28;20036;-69
2024/03/16 16:49:30;;;;;;;3.75;2.10;;;;;;;9.09;100.00;102268.53;10501017;28;20028;-68
2024/03/16 16:54:30;;;;;;;7.80;1.77;;;;;;;8.93;100.00;102263.81;10501132;28;20040;-69
2024/03/16 16:59:30;;;;;;;1.70;1.60;;;;;;;8.84;100.00;102254.81;10498510;28;20424;-68
2024/03/16 17:04:32;;;;;;;6.32;2.78;;;;;;;8.69;100.00;102253.63;10499170;28;20116;-69
2024/03/16 17:09:33;;;;;;;10.68;2.97;;;;;;;8.56;100.00;102267.50;10498431;28;20109;-68
2024/03/16 17:14:33;;;;;;;8.88;3.38;;;;;;;8.49;100.00;102282.59;10498928;28;20094;-69
2024/03/16 17:19:34;;;;;;;10.02;3.10;;;;;;;8.38;100.00;102278.22;10498683;28;20397;-68
2024/03/16 17:24:34;;;;;;;7.85;1.98;;;;;;;8.21;100.00;102287.09;10497832;28;20468;-68
2024/03/16 17:29:36;;;;;;;4.30;2.63;;;;;;;8.12;100.00;102285.28;10498309;28;20086;-68
2024/03/16 17:34:37;;;;;;;5.90;2.17;;;;;;;7.99;100.00;102304.47;10497083;28;20044;-68
2024/03/16 17:39:37;;;;;;;3.45;1.65;;;;;;;7.89;100.00;102303.66;10497218;28;20345;-69
2024/03/16 17:44:37;;;;;;;7.93;2.25;;;;;;;7.78;100.00;102309.22;10496416;28;20054;-68
2024/03/16 17:49:41;;;;;;;6.13;3.90;;;;;;;7.69;100.00;102305.56;10496285;28;20024;-68
2024/03/16 17:54:41;;;;;;;5.75;2.25;;;;;;;7.61;100.00;102300.88;10496905;28;20387;-68
2024/03/16 17:59:42;;;;;;;8.40;2.95;;;;;;;7.49;100.00;102303.84;10496579;28;20040;-68
2024/03/16 18:04:42;;;;;;;5.90;3.83;;;;;;;7.39;100.00;102304.69;10495167;28;20059;-68
2024/03/16 18:09:43;;;;;;;7.65;2.67;;;;;;;7.28;100.00;102312.09;10497652;28;20044;-68
2024/03/16 18:14:43;;;;;;;9.60;3.08;;;;;;;7.15;100.00;102307.00;10497238;28;20032;-68
2024/03/16 18:19:43;;;;;;;6.32;3.80;;;;;;;7.07;100.00;102310.38;10495880;28;20037;-68
2024/03/16 18:24:49;;;;;;;11.13;4.22;;;;;;;6.97;100.00;102315.75;10496832;28;20468;-68
2024/03/16 18:29:49;;;;;;;5.25;3.10;;;;;;;6.77;100.00;102299.69;10496409;28;20032;-68
2024/03/16 18:34:49;;;;;;;7.88;2.13;;;;;;;6.70;100.00;102305.63;10497867;28;20047;-68
2024/03/16 18:39:50;;;;;;;5.85;2.63;;;;;;;6.61;100.00;102311.00;10495708;28;20086;-68
2024/03/16 18:44:51;;;;;;;2.65;2.42;;;;;;;6.44;100.00;102307.94;10494729;28;20036;-68
2024/03/16 18:49:51;;;;;;;2.28;2.13;;;;;;;6.33;100.00;102309.88;10496960;28;20032;-68
2024/03/16 18:54:51;;;;;;;8.55;2.88;;;;;;;6.19;100.00;102300.31;10494371;28;20051;-68
2024/03/16 18:59:52;;;;;;;8.95;2.90;;;;;;;6.13;100.00;102309.81;10497148;28;20131;-68
2024/03/16 19:04:52;;;;;;;13.77;3.97;;;;;;;6.09;100.00;102302.97;10495357;28;20446;-68
2024/03/16 19:09:53;;;;;;;5.30;3.70;;;;;;;6.24;100.00;102301.63;10494731;28;20044;-67
2024/03/16 19:14:53;;;;;;;11.80;4.18;;;;;;;6.41;100.00;102292.06;10497361;28;20074;-68
2024/03/16 19:19:54;;;;;;;8.05;3.90;;;;;;;6.47;100.00;102293.34;10496058;28;20388;-68
2024/03/16 19:24:54;;;;;;;5.50;3.10;;;;;;;6.44;100.00;102296.31;10496005;28;20042;-68
2024/03/16 19:29:54;;;;;;;9.75;2.83;;;;;;;6.31;100.00;102299.25;10496362;28;20028;-68
2024/03/16 19:34:55;;;;;;;10.25;3.75;;;;;;;6.41;100.00;102312.72;10495731;28;20037;-68
2024/03/16 19:39:55;;;;;;;14.13;5.78;;;;;;;6.44;100.00;102312.47;10495741;28;20025;-68
2024/03/16 19:44:56;;;;;;;13.23;4.07;;;;;;;6.38;100.00;102311.19;10495296;28;20032;-68
2024/03/16 19:49:56;;;;;;;9.00;4.22;;;;;;;6.39;100.00;102322.81;10500596;28;20035;-68
2024/03/16 19:54:57;;;;;;;5.95;4.63;;;;;;;6.38;100.00;102321.97;10502409;28;20032;-68
2024/03/16 19:59:57;;;;;;;8.15;4.03;;;;;;;6.33;100.00;102328.72;10501222;28;20017;-68
2024/03/16 20:04:57;;;;;;;11.27;4.63;;;;;;;6.31;100.00;102322.63;10502346;28;20020;-68
2024/03/16 20:09:58;;;;;;;9.52;5.20;;;;;;;6.28;100.00;102312.97;10484735;28;20056;-68
2024/03/16 20:14:59;;;;;;;5.15;3.28;;;;;;;6.27;100.00;102313.97;10500130;28;20037;-68
2024/03/16 20:20:08;;;;;;;6.75;4.05;;;;;;;6.23;100.00;102307.16;10501875;28;20372;-68
2024/03/16 20:25:09;;;;;;;14.30;3.42;;;;;;;6.22;100.00;102300.06;10500841;28;20376;-68
2024/03/16 20:30:10;;;;;;;10.52;5.30;;;;;;;6.27;100.00;102305.88;10501517;28;20462;-68
2024/03/16 20:35:11;;;;;;;6.47;5.10;;;;;;;6.27;100.00;102303.19;10501315;28;20035;-68
2024/03/16 20:40:11;;;;;;;18.60;6.50;;;;;;;6.31;100.00;102303.78;10500968;28;20086;-68
2024/03/16 20:45:12;;;;;;;11.48;7.07;;;;;;;6.36;100.00;102298.84;10501544;28;20068;-68
2024/03/16 20:50:12;;;;;;;6.15;5.57;;;;;;;6.41;100.00;102301.97;10499058;28;20036;-68
2024/03/16 20:55:16;;;;;;;8.00;5.22;;;;;;;6.40;100.00;102301.13;10498385;28;20068;-68
2024/03/16 21:00:17;;;;;;;10.73;5.20;;;;;;;6.41;100.00;102292.06;10498774;28;20033;-68
2024/03/16 21:05:17;;;;;;;10.85;5.07;;;;;;;6.42;100.00;102295.63;10499662;28;20040;-68
2024/03/16 21:10:18;;;;;;;7.88;4.32;;;;;;;6.44;100.00;102293.63;10498977;28;20033;-68
2024/03/16 21:15:18;;;;;;;13.20;5.78;;;;;;;6.46;100.00;102294.34;10501006;28;20033;-68
2024/03/16 21:20:19;;;;;;;6.13;4.15;;;;;;;6.44;100.00;102294.47;10497786;28;20064;-68
2024/03/16 21:25:22;;;;;;;7.93;4.63;;;;;;;6.43;100.00;102294.63;10497236;28;20036;-68
2024/03/16 21:30:22;;;;;;;22.30;6.13;;;;;;;6.39;100.00;102287.81;10497909;28;20420;-68
2024/03/16 21:35:23;;;;;;;11.25;8.27;;;;;;;6.43;100.00;102291.94;10496780;28;20028;-68
2024/03/16 21:40:24;;;;;;;13.45;6.97;;;;;;;6.44;100.00;102291.78;10499153;28;20035;-69
2024/03/16 21:45:26;;;;;;;14.27;8.05;;;;;;;6.41;100.00;102293.91;10497457;28;20028;-68
2024/03/16 21:50:27;;;;;;;18.05;7.93;;;;;;;6.44;100.00;102299.00;10499097;28;20119;-68
2024/03/16 21:55:27;;;;;;;14.45;8.32;;;;;;;6.46;100.00;102291.66;10497261;28;20036;-68
2024/03/16 22:00:27;;;;;;;13.20;10.25;;;;;;;6.46;100.00;102294.34;10497340;28;20032;-68
2024/03/16 22:05:28;;;;;;;10.45;7.85;;;;;;;6.45;100.00;102289.97;10478718;28;20053;-68
2024/03/16 22:10:31;;;;;;;12.18;6.93;;;;;;;6.44;100.00;102286.41;10497296;28;20033;-68
2024/03/16 22:15:33;;;;;;;14.18;8.32;;;;;;;6.45;100.00;102282.75;10497360;28;20476;-69
2024/03/16 22:20:33;;;;;;;13.90;8.23;;;;;;;6.48;100.00;102279.78;10499110;28;20029;-68
2024/03/16 22:25:34;;;;;;;11.73;6.90;;;;;;;6.52;100.00;102273.13;10497183;28;20383;-68
2024/03/16 22:30:34;;;;;;;22.17;8.73;;;;;;;6.61;100.00;102274.16;10495934;28;20040;-69
2024/03/16 22:35:35;;;;;;;10.45;6.55;;;;;;;6.69;100.00;102273.44;10479267;28;20052;-69
2024/03/16 22:40:35;;;;;;;14.70;8.40;;;;;;;6.78;100.00;102279.84;10498282;28;20039;-68
2024/03/16 22:45:36;;;;;;;11.40;7.03;;;;;;;6.83;100.00;102277.56;10496272;28;20040;-68
2024/03/16 22:50:36;;;;;;;13.02;7.63;;;;;;;6.86;100.00;102275.47;10496118;28;20035;-68